< Cyclone 200811 2008 Season Cyclone 200820 >
Cyclone 200815 (Ophelia)
General InformationTrack Information on Google MapsDetailed Wind InformationList of All Images || ResourceGoogle EarthGE AnimationAtom FeedGeoJSON
Detalied Best Track (Time Zone = UTC)
Year Month Day Hour Lat. Long. Pressure (hPa) Wind (kt) Class Image Chart
2008 2 28 00 -14.9 129.0 1003 20 2 Image --
2008 2 29 06 -14.6 126.8 1003 20 2 Image --
2008 2 29 12 -14.8 125.8 1003 20 2 Image --
2008 2 29 18 -15.0 124.8 1002 25 2 Image --
2008 3 1 00 -15.3 124.0 1000 30 2 Image --
2008 3 1 06 -15.6 123.3 1000 30 2 Image --
2008 3 1 12 -15.7 122.7 998 35 3 Image --
2008 3 1 18 -15.9 122.2 992 45 3 Image --
2008 3 2 00 -16.1 121.4 998 50 4 Image --
2008 3 2 06 -16.4 120.6 985 55 4 Image --
2008 3 2 12 -16.4 120.0 985 55 4 Image --
2008 3 2 18 -16.4 119.1 985 55 4 Image --
2008 3 3 00 -16.4 118.4 989 50 4 Image --
2008 3 3 06 -16.4 117.3 988 50 4 Image --
2008 3 3 12 -16.6 116.3 988 50 4 Image --
2008 3 3 18 -16.8 115.3 988 50 4 Image --
2008 3 4 00 -17.1 114.3 988 50 4 Image --
2008 3 4 06 -17.4 113.4 988 50 4 Image --
2008 3 4 12 -17.9 112.6 988 50 4 Image --
2008 3 4 18 -18.4 111.9 987 50 4 Image --
2008 3 5 00 -19.2 111.2 987 50 4 Image --
2008 3 5 06 -20.0 110.4 987 50 4 Image --
2008 3 5 12 -20.7 109.8 988 50 4 Image --
2008 3 5 18 -21.5 109.4 993 45 3 Image --
2008 3 6 00 -22.3 109.3 995 40 3 Image --
2008 3 6 06 -23.3 109.2 996 40 3 Image --
2008 3 6 12 -23.9 109.3 1001 30 2 Image --
2008 3 6 18 -24.7 109.8 1001 30 2 Image --
2008 3 7 00 -25.2 110.6 1001 30 2 Image --
2008 3 7 06 -25.3 111.6 1004 25 2 Image --
< Cyclone 200811 2008 Season Cyclone 200820 >

Help